PBD829 UUWW-LYTV
Flight info
| Callsign | PBD829 |
|---|---|
| Flight time | 2h 51m |
| Altitude | 34000 |
| Route | SOTOG3D SOTOG L736 GODBI L856 DELON P26 OGARA Z860 RAVOK L856 TOSPO/N0451F340 Z367 KEFIR DCT KEKED DCT PARAK DCT GENLU DCT POD |
| Aircraft | B738/M-SDE2E3FGHIRWXY/LB1 |
Departure
| Time | 2026-04-28 16:10 |
|---|---|
| Airport | Vnukovo International Airport (UUWW) |
Arrival
| Time | 2026-04-28 19:01 |
|---|---|
| Airport | Tivat Airport (LYTV) |
| Time | Latitude | Longitude | Altitude | Speed | Heading |
|---|---|---|---|---|---|
| 2026-04-28 15:49 | 55.60191 | 37.27738 | 679 ft | 0 kts | 79° |
| 2026-04-28 15:59 | 55.60191 | 37.27737 | 679 ft | 0 kts | 79° |
| 2026-04-28 16:03 | 55.60193 | 37.27760 | 678 ft | 4 kts | 79° |
| 2026-04-28 16:04 | 55.60192 | 37.27831 | 679 ft | 7 kts | 122° |
| 2026-04-28 16:04 | 55.60152 | 37.27883 | 679 ft | 7 kts | 147° |
| 2026-04-28 16:04 | 55.60116 | 37.27939 | 679 ft | 7 kts | 132° |
| 2026-04-28 16:04 | 55.60085 | 37.28028 | 679 ft | 11 kts | 114° |
| 2026-04-28 16:05 | 55.60075 | 37.28157 | 679 ft | 11 kts | 86° |
| 2026-04-28 16:05 | 55.60082 | 37.28286 | 678 ft | 10 kts | 84° |
| 2026-04-28 16:05 | 55.60092 | 37.28411 | 678 ft | 10 kts | 66° |
| 2026-04-28 16:05 | 55.60135 | 37.28509 | 678 ft | 10 kts | 47° |
| 2026-04-28 16:06 | 55.60181 | 37.28596 | 678 ft | 10 kts | 47° |
| 2026-04-28 16:06 | 55.60214 | 37.28693 | 678 ft | 9 kts | 94° |
| 2026-04-28 16:06 | 55.60172 | 37.28779 | 677 ft | 9 kts | 133° |
| 2026-04-28 16:06 | 55.60125 | 37.28853 | 678 ft | 9 kts | 144° |
| 2026-04-28 16:07 | 55.60066 | 37.28889 | 679 ft | 10 kts | 165° |
| 2026-04-28 16:07 | 55.59993 | 37.28922 | 679 ft | 11 kts | 167° |
| 2026-04-28 16:07 | 55.59807 | 37.28983 | 685 ft | 14 kts | 197° |
| 2026-04-28 16:08 | 55.59769 | 37.28880 | 686 ft | 0 kts | 247° |
| 2026-04-28 16:09 | 55.59592 | 37.28096 | 681 ft | 98 kts | 248° |
| 2026-04-28 16:09 | 55.59258 | 37.26627 | 671 ft | 157 kts | 250° |
| 2026-04-28 16:09 | 55.58832 | 37.24690 | 1167 ft | 175 kts | 251° |
| 2026-04-28 16:10 | 55.57212 | 37.21113 | 2411 ft | 219 kts | 223° |
| 2026-04-28 16:10 | 55.56274 | 37.19154 | 2978 ft | 205 kts | 249° |
| 2026-04-28 16:10 | 55.54910 | 37.14649 | 3632 ft | 207 kts | 265° |
| 2026-04-28 16:11 | 55.54787 | 37.09715 | 4690 ft | 202 kts | 276° |
| 2026-04-28 16:11 | 55.55316 | 37.04952 | 5628 ft | 200 kts | 308° |
| 2026-04-28 16:12 | 55.57815 | 37.02601 | 6371 ft | 224 kts | 351° |
| 2026-04-28 16:12 | 55.59388 | 37.02585 | 6866 ft | 227 kts | 353° |
| 2026-04-28 16:13 | 55.62483 | 37.03340 | 7092 ft | 234 kts | 24° |
| 2026-04-28 16:13 | 55.63662 | 37.05361 | 7641 ft | 245 kts | 49° |
| 2026-04-28 16:13 | 55.64326 | 37.11449 | 8683 ft | 260 kts | 84° |
| 2026-04-28 16:14 | 55.63938 | 37.18121 | 9118 ft | 293 kts | 116° |
| 2026-04-28 16:14 | 55.60652 | 37.22188 | 9578 ft | 305 kts | 169° |
| 2026-04-28 16:15 | 55.57199 | 37.22652 | 10161 ft | 292 kts | 206° |
| 2026-04-28 16:15 | 55.55257 | 37.21360 | 10368 ft | 305 kts | 208° |
| 2026-04-28 16:15 | 55.53222 | 37.19928 | 10489 ft | 322 kts | 207° |
| 2026-04-28 16:16 | 55.48881 | 37.16845 | 10756 ft | 353 kts | 207° |
| 2026-04-28 16:16 | 55.46569 | 37.15211 | 11082 ft | 361 kts | 206° |
| 2026-04-28 16:17 | 55.41908 | 37.11929 | 12058 ft | 366 kts | 206° |
| 2026-04-28 16:17 | 55.39528 | 37.10270 | 12562 ft | 369 kts | 206° |
| 2026-04-28 16:17 | 55.37151 | 37.08616 | 13030 ft | 373 kts | 206° |
| 2026-04-28 16:17 | 55.34717 | 37.06922 | 13530 ft | 377 kts | 206° |
| 2026-04-28 16:18 | 55.32258 | 37.05212 | 14005 ft | 381 kts | 206° |
| 2026-04-28 16:18 | 55.29782 | 37.03491 | 14500 ft | 383 kts | 205° |
| 2026-04-28 16:18 | 55.27298 | 37.01765 | 14964 ft | 387 kts | 205° |
| 2026-04-28 16:18 | 55.24768 | 37.00009 | 15324 ft | 394 kts | 205° |
| 2026-04-28 16:19 | 55.22200 | 36.98229 | 15791 ft | 397 kts | 205° |
| 2026-04-28 16:19 | 55.19645 | 36.96461 | 16285 ft | 399 kts | 205° |
| 2026-04-28 16:19 | 55.17049 | 36.94668 | 16738 ft | 403 kts | 205° |
| 2026-04-28 16:19 | 55.14426 | 36.92856 | 17177 ft | 406 kts | 205° |
| 2026-04-28 16:20 | 55.11767 | 36.91024 | 17600 ft | 410 kts | 205° |
| 2026-04-28 16:20 | 55.09128 | 36.89208 | 18047 ft | 413 kts | 204° |
| 2026-04-28 16:20 | 55.06446 | 36.87365 | 18507 ft | 414 kts | 204° |
| 2026-04-28 16:20 | 55.03742 | 36.85510 | 18906 ft | 417 kts | 204° |
| 2026-04-28 16:21 | 55.01033 | 36.83655 | 19341 ft | 418 kts | 204° |
| 2026-04-28 16:21 | 54.98349 | 36.81818 | 19788 ft | 421 kts | 204° |
| 2026-04-28 16:21 | 54.95612 | 36.79948 | 20273 ft | 423 kts | 204° |
| 2026-04-28 16:21 | 54.92859 | 36.78070 | 20754 ft | 425 kts | 204° |
| 2026-04-28 16:22 | 54.90093 | 36.76184 | 21208 ft | 428 kts | 204° |
| 2026-04-28 16:22 | 54.87309 | 36.74290 | 21643 ft | 431 kts | 204° |
| 2026-04-28 16:22 | 54.84507 | 36.72385 | 22070 ft | 433 kts | 204° |
| 2026-04-28 16:22 | 54.81716 | 36.70491 | 22485 ft | 436 kts | 204° |
| 2026-04-28 16:23 | 54.78883 | 36.68518 | 22884 ft | 438 kts | 208° |
| 2026-04-28 16:23 | 54.76396 | 36.65532 | 23223 ft | 433 kts | 230° |
| 2026-04-28 16:23 | 54.74632 | 36.61330 | 23510 ft | 430 kts | 246° |
| 2026-04-28 16:23 | 54.73588 | 36.56574 | 23824 ft | 427 kts | 260° |
| 2026-04-28 16:24 | 54.73299 | 36.51487 | 24205 ft | 423 kts | 273° |
| 2026-04-28 16:24 | 54.73363 | 36.46381 | 24571 ft | 424 kts | 275° |
| 2026-04-28 16:24 | 54.73457 | 36.41239 | 24863 ft | 427 kts | 274° |
| 2026-04-28 16:24 | 54.73540 | 36.36142 | 25105 ft | 431 kts | 274° |
| 2026-04-28 16:25 | 54.73602 | 36.30940 | 25435 ft | 433 kts | 274° |
| 2026-04-28 16:25 | 54.73646 | 36.25730 | 25825 ft | 434 kts | 274° |
| 2026-04-28 16:25 | 54.73683 | 36.20493 | 26129 ft | 436 kts | 273° |
| 2026-04-28 16:25 | 54.73716 | 36.15231 | 26400 ft | 438 kts | 272° |
| 2026-04-28 16:26 | 54.73741 | 36.09926 | 26655 ft | 441 kts | 272° |
| 2026-04-28 16:26 | 54.73761 | 36.04660 | 26979 ft | 442 kts | 272° |
| 2026-04-28 16:26 | 54.73779 | 35.99319 | 27298 ft | 443 kts | 273° |
| 2026-04-28 16:26 | 54.73794 | 35.94030 | 27558 ft | 445 kts | 272° |
| 2026-04-28 16:27 | 54.73809 | 35.88650 | 27841 ft | 446 kts | 272° |
| 2026-04-28 16:27 | 54.73820 | 35.83281 | 28183 ft | 446 kts | 272° |
| 2026-04-28 16:27 | 54.73839 | 35.72497 | 28657 ft | 451 kts | 272° |
| 2026-04-28 16:28 | 54.73843 | 35.67040 | 28898 ft | 452 kts | 271° |
| 2026-04-28 16:28 | 54.73845 | 35.61658 | 29348 ft | 450 kts | 271° |
| 2026-04-28 16:28 | 54.73846 | 35.56241 | 29806 ft | 448 kts | 273° |
| 2026-04-28 16:28 | 54.73846 | 35.50839 | 30117 ft | 447 kts | 272° |
| 2026-04-28 16:29 | 54.73840 | 35.40141 | 30626 ft | 447 kts | 271° |
| 2026-04-28 16:29 | 54.73819 | 35.29419 | 31365 ft | 441 kts | 271° |
| 2026-04-28 16:30 | 54.73761 | 35.24085 | 31597 ft | 443 kts | 267° |
| 2026-04-28 16:30 | 54.73306 | 35.18850 | 31762 ft | 447 kts | 257° |
| 2026-04-28 16:30 | 54.72422 | 35.13684 | 31973 ft | 448 kts | 255° |
| 2026-04-28 16:30 | 54.71475 | 35.08555 | 32402 ft | 443 kts | 254° |
| 2026-04-28 16:31 | 54.70531 | 35.03493 | 32748 ft | 441 kts | 254° |
| 2026-04-28 16:31 | 54.68662 | 34.93322 | 33122 ft | 442 kts | 253° |
| 2026-04-28 16:31 | 54.67751 | 34.88334 | 33516 ft | 438 kts | 254° |
| 2026-04-28 16:32 | 54.66837 | 34.83325 | 33830 ft | 435 kts | 254° |
| 2026-04-28 16:32 | 54.64087 | 34.68229 | 33906 ft | 443 kts | 254° |
| 2026-04-28 16:33 | 54.62534 | 34.59737 | 33912 ft | 448 kts | 253° |
| 2026-04-28 16:33 | 54.60322 | 34.47725 | 33922 ft | 454 kts | 254° |
| 2026-04-28 16:34 | 54.58388 | 34.37299 | 33920 ft | 457 kts | 253° |
| 2026-04-28 16:34 | 54.56452 | 34.26894 | 33920 ft | 458 kts | 253° |
| 2026-04-28 16:35 | 54.54494 | 34.16423 | 33935 ft | 458 kts | 253° |
| 2026-04-28 16:35 | 54.52549 | 34.06107 | 33937 ft | 461 kts | 253° |
| 2026-04-28 16:36 | 54.50549 | 33.95541 | 33935 ft | 464 kts | 253° |
| 2026-04-28 16:36 | 54.48542 | 33.85008 | 33938 ft | 465 kts | 253° |
| 2026-04-28 16:37 | 54.46512 | 33.74407 | 33930 ft | 466 kts | 253° |
| 2026-04-28 16:38 | 54.43461 | 33.58571 | 33948 ft | 467 kts | 253° |
| 2026-04-28 16:38 | 54.41400 | 33.47964 | 33943 ft | 467 kts | 253° |
| 2026-04-28 16:39 | 54.39340 | 33.37432 | 33961 ft | 467 kts | 253° |
| 2026-04-28 16:39 | 54.37253 | 33.26831 | 33951 ft | 467 kts | 252° |
| 2026-04-28 16:40 | 54.35180 | 33.16323 | 33961 ft | 466 kts | 252° |
| 2026-04-28 16:40 | 54.33087 | 33.05797 | 33968 ft | 466 kts | 252° |
| 2026-04-28 16:41 | 54.30987 | 32.95267 | 33965 ft | 466 kts | 252° |
| 2026-04-28 16:41 | 54.28885 | 32.84801 | 33974 ft | 466 kts | 252° |
| 2026-04-28 16:42 | 54.26766 | 32.74302 | 33966 ft | 466 kts | 252° |
| 2026-04-28 16:42 | 54.24645 | 32.63857 | 33983 ft | 466 kts | 252° |
| 2026-04-28 16:43 | 54.22504 | 32.53352 | 33971 ft | 467 kts | 252° |
| 2026-04-28 16:43 | 54.20368 | 32.42938 | 33989 ft | 466 kts | 252° |
| 2026-04-28 16:44 | 54.18205 | 32.32445 | 33986 ft | 467 kts | 252° |
| 2026-04-28 16:44 | 54.16039 | 32.21982 | 33990 ft | 467 kts | 252° |
| 2026-04-28 16:45 | 54.13873 | 32.11586 | 33995 ft | 468 kts | 252° |
| 2026-04-28 16:45 | 54.11686 | 32.01133 | 33979 ft | 467 kts | 252° |
| 2026-04-28 16:46 | 54.09491 | 31.90687 | 33993 ft | 467 kts | 252° |
| 2026-04-28 16:46 | 54.07289 | 31.80284 | 33996 ft | 466 kts | 251° |
| 2026-04-28 16:47 | 54.05093 | 31.69967 | 34006 ft | 466 kts | 252° |
| 2026-04-28 16:47 | 54.02877 | 31.59590 | 33998 ft | 466 kts | 252° |
| 2026-04-28 16:48 | 54.00648 | 31.49204 | 33998 ft | 466 kts | 252° |
| 2026-04-28 16:48 | 53.98408 | 31.38825 | 34004 ft | 467 kts | 252° |
| 2026-04-28 16:49 | 53.96174 | 31.28509 | 34003 ft | 467 kts | 251° |
| 2026-04-28 16:49 | 53.93918 | 31.18157 | 34017 ft | 467 kts | 251° |
| 2026-04-28 16:50 | 53.91667 | 31.07867 | 34004 ft | 467 kts | 251° |
| 2026-04-28 16:50 | 53.89393 | 30.97536 | 34017 ft | 467 kts | 251° |
| 2026-04-28 16:51 | 53.87110 | 30.87204 | 34010 ft | 467 kts | 251° |
| 2026-04-28 16:51 | 53.84828 | 30.76959 | 34022 ft | 466 kts | 251° |
| 2026-04-28 16:52 | 53.82519 | 30.66692 | 34009 ft | 465 kts | 251° |
| 2026-04-28 16:52 | 53.80208 | 30.56452 | 34033 ft | 466 kts | 251° |
| 2026-04-28 16:53 | 53.77902 | 30.46280 | 34035 ft | 466 kts | 251° |
| 2026-04-28 16:53 | 53.75570 | 30.36034 | 34066 ft | 466 kts | 251° |
| 2026-04-28 16:54 | 53.73241 | 30.25853 | 34042 ft | 466 kts | 251° |
| 2026-04-28 16:54 | 53.70892 | 30.15635 | 34055 ft | 466 kts | 251° |
| 2026-04-28 16:55 | 53.68540 | 30.05455 | 34059 ft | 465 kts | 251° |
| 2026-04-28 16:55 | 53.66174 | 29.95260 | 34077 ft | 466 kts | 251° |
| 2026-04-28 16:56 | 53.63820 | 29.85156 | 34071 ft | 466 kts | 251° |
| 2026-04-28 16:56 | 53.61437 | 29.74980 | 34073 ft | 466 kts | 251° |
| 2026-04-28 16:57 | 53.59047 | 29.64813 | 34066 ft | 465 kts | 251° |
| 2026-04-28 16:57 | 53.56671 | 29.54733 | 34072 ft | 465 kts | 251° |
| 2026-04-28 16:58 | 53.54275 | 29.44609 | 34079 ft | 465 kts | 251° |
| 2026-04-28 16:58 | 53.51882 | 29.34543 | 34076 ft | 465 kts | 251° |
| 2026-04-28 16:59 | 53.49467 | 29.24431 | 34080 ft | 465 kts | 251° |
| 2026-04-28 16:59 | 53.47057 | 29.14397 | 34062 ft | 464 kts | 251° |
| 2026-04-28 17:00 | 53.44634 | 29.04353 | 34072 ft | 462 kts | 251° |
| 2026-04-28 17:00 | 53.42224 | 28.94395 | 34083 ft | 463 kts | 251° |
| 2026-04-28 17:01 | 53.39791 | 28.84383 | 34088 ft | 463 kts | 251° |
| 2026-04-28 17:01 | 53.37761 | 28.76060 | 34093 ft | 463 kts | 251° |
| 2026-04-28 17:02 | 53.34774 | 28.64547 | 34078 ft | 466 kts | 244° |
| 2026-04-28 17:02 | 53.31623 | 28.57082 | 34098 ft | 470 kts | 236° |
| 2026-04-28 17:03 | 53.25598 | 28.44206 | 34093 ft | 470 kts | 236° |
| 2026-04-28 17:03 | 53.21604 | 28.35545 | 34096 ft | 469 kts | 236° |
| 2026-04-28 17:04 | 53.15651 | 28.22617 | 34075 ft | 469 kts | 236° |
| 2026-04-28 17:05 | 53.09690 | 28.09754 | 34105 ft | 468 kts | 236° |
| 2026-04-28 17:06 | 53.03678 | 27.96884 | 34115 ft | 469 kts | 236° |
| 2026-04-28 17:06 | 52.97684 | 27.84105 | 34103 ft | 469 kts | 236° |
| 2026-04-28 17:07 | 52.93663 | 27.75565 | 34115 ft | 468 kts | 236° |
| 2026-04-28 17:07 | 52.89663 | 27.67099 | 34128 ft | 468 kts | 236° |
| 2026-04-28 17:08 | 52.85657 | 27.58649 | 34127 ft | 468 kts | 236° |
| 2026-04-28 17:08 | 52.81627 | 27.50175 | 34128 ft | 468 kts | 236° |
| 2026-04-28 17:09 | 52.77593 | 27.41720 | 34132 ft | 468 kts | 236° |
| 2026-04-28 17:09 | 52.73569 | 27.33311 | 34139 ft | 468 kts | 236° |
| 2026-04-28 17:10 | 52.69829 | 27.24594 | 34134 ft | 461 kts | 247° |
| 2026-04-28 17:10 | 52.67649 | 27.14766 | 34143 ft | 453 kts | 261° |
| 2026-04-28 17:11 | 52.66308 | 27.04649 | 34144 ft | 454 kts | 261° |
| 2026-04-28 17:11 | 52.64948 | 26.94474 | 34138 ft | 454 kts | 261° |
| 2026-04-28 17:12 | 52.63560 | 26.84387 | 34144 ft | 454 kts | 261° |
| 2026-04-28 17:12 | 52.62143 | 26.74258 | 34158 ft | 454 kts | 261° |
| 2026-04-28 17:13 | 52.60712 | 26.64125 | 34164 ft | 454 kts | 261° |
| 2026-04-28 17:13 | 52.59283 | 26.54056 | 34163 ft | 454 kts | 261° |
| 2026-04-28 17:14 | 52.57836 | 26.43928 | 34166 ft | 454 kts | 261° |
| 2026-04-28 17:14 | 52.56380 | 26.33809 | 34168 ft | 454 kts | 261° |
| 2026-04-28 17:15 | 52.54927 | 26.23765 | 34159 ft | 453 kts | 261° |
| 2026-04-28 17:15 | 52.53458 | 26.13688 | 34169 ft | 451 kts | 261° |
| 2026-04-28 17:16 | 52.51996 | 26.03720 | 34176 ft | 451 kts | 261° |
| 2026-04-28 17:16 | 52.50517 | 25.93692 | 34181 ft | 452 kts | 261° |
| 2026-04-28 17:17 | 52.49027 | 25.83655 | 34182 ft | 452 kts | 261° |
| 2026-04-28 17:17 | 52.47534 | 25.73672 | 34183 ft | 452 kts | 260° |
| 2026-04-28 17:18 | 52.46035 | 25.63704 | 34180 ft | 452 kts | 261° |
| 2026-04-28 17:18 | 52.44522 | 25.53705 | 34181 ft | 450 kts | 261° |
| 2026-04-28 17:19 | 52.43005 | 25.43750 | 34188 ft | 449 kts | 261° |
| 2026-04-28 17:19 | 52.41483 | 25.33814 | 34188 ft | 449 kts | 260° |
| 2026-04-28 17:20 | 52.40220 | 25.25612 | 34195 ft | 449 kts | 260° |
| 2026-04-28 17:20 | 52.38424 | 25.14022 | 34197 ft | 449 kts | 260° |
| 2026-04-28 17:21 | 52.36889 | 25.04170 | 34196 ft | 449 kts | 260° |
| 2026-04-28 17:22 | 52.34526 | 24.89299 | 34203 ft | 449 kts | 259° |
| 2026-04-28 17:22 | 52.32924 | 24.79453 | 34193 ft | 446 kts | 260° |
| 2026-04-28 17:23 | 52.30531 | 24.64796 | 34195 ft | 446 kts | 259° |
| 2026-04-28 17:23 | 52.28921 | 24.54987 | 34199 ft | 446 kts | 259° |
| 2026-04-28 17:24 | 52.27314 | 24.45252 | 34200 ft | 446 kts | 259° |
| 2026-04-28 17:24 | 52.25689 | 24.35466 | 34201 ft | 446 kts | 260° |
| 2026-04-28 17:25 | 52.23237 | 24.20792 | 34206 ft | 446 kts | 259° |
| 2026-04-28 17:26 | 52.21341 | 24.11180 | 34199 ft | 452 kts | 250° |
| 2026-04-28 17:26 | 52.17944 | 24.02408 | 34213 ft | 465 kts | 236° |
| 2026-04-28 17:27 | 52.13736 | 23.94367 | 34212 ft | 466 kts | 236° |
| 2026-04-28 17:27 | 52.09712 | 23.86224 | 34208 ft | 462 kts | 241° |
| 2026-04-28 17:28 | 52.06175 | 23.77529 | 34160 ft | 460 kts | 243° |
| 2026-04-28 17:28 | 52.02321 | 23.69212 | 34211 ft | 467 kts | 230° |
| 2026-04-28 17:28 | 51.99796 | 23.65822 | 34225 ft | 475 kts | 221° |
| 2026-04-28 17:29 | 51.93853 | 23.60860 | 34236 ft | 488 kts | 209° |
| 2026-04-28 17:30 | 51.84435 | 23.54566 | 34176 ft | 489 kts | 209° |
| 2026-04-28 17:30 | 51.75080 | 23.48218 | 34230 ft | 484 kts | 209° |
| 2026-04-28 17:31 | 51.65812 | 23.41861 | 34237 ft | 484 kts | 209° |
| 2026-04-28 17:32 | 51.56512 | 23.35514 | 34233 ft | 482 kts | 210° |
| 2026-04-28 17:32 | 51.50338 | 23.31317 | 34231 ft | 481 kts | 210° |
| 2026-04-28 17:33 | 51.44195 | 23.27155 | 34234 ft | 481 kts | 209° |
| 2026-04-28 17:33 | 51.39054 | 23.23681 | 34200 ft | 481 kts | 210° |
| 2026-04-28 17:34 | 51.31863 | 23.18839 | 34239 ft | 479 kts | 210° |
| 2026-04-28 17:34 | 51.25712 | 23.14707 | 34251 ft | 479 kts | 210° |
| 2026-04-28 17:35 | 51.19594 | 23.10609 | 34252 ft | 479 kts | 210° |
| 2026-04-28 17:35 | 51.13426 | 23.06490 | 34255 ft | 479 kts | 210° |
| 2026-04-28 17:36 | 51.07320 | 23.02425 | 34248 ft | 479 kts | 210° |
| 2026-04-28 17:36 | 51.01151 | 22.98330 | 34252 ft | 479 kts | 210° |
| 2026-04-28 17:37 | 50.94993 | 22.94254 | 34220 ft | 479 kts | 210° |
| 2026-04-28 17:37 | 50.88888 | 22.90228 | 34237 ft | 476 kts | 210° |
| 2026-04-28 17:38 | 50.82759 | 22.86193 | 34245 ft | 476 kts | 210° |
| 2026-04-28 17:38 | 50.76672 | 22.82197 | 34252 ft | 476 kts | 210° |
| 2026-04-28 17:39 | 50.70540 | 22.78184 | 34245 ft | 475 kts | 210° |
| 2026-04-28 17:40 | 50.61363 | 22.72199 | 34251 ft | 475 kts | 210° |
| 2026-04-28 17:40 | 50.55283 | 22.68248 | 34257 ft | 475 kts | 210° |
| 2026-04-28 17:41 | 50.49150 | 22.64274 | 34231 ft | 474 kts | 210° |
| 2026-04-28 17:41 | 50.43059 | 22.60338 | 34240 ft | 475 kts | 210° |
| 2026-04-28 17:42 | 50.36945 | 22.56398 | 34250 ft | 474 kts | 210° |
| 2026-04-28 17:42 | 50.30862 | 22.52490 | 34248 ft | 475 kts | 210° |
| 2026-04-28 17:43 | 50.24745 | 22.48571 | 34238 ft | 473 kts | 210° |
| 2026-04-28 17:43 | 50.18692 | 22.44703 | 34244 ft | 473 kts | 210° |
| 2026-04-28 17:44 | 50.12589 | 22.40812 | 34244 ft | 473 kts | 210° |
| 2026-04-28 17:44 | 50.06489 | 22.36935 | 34232 ft | 472 kts | 209° |
| 2026-04-28 17:45 | 50.00433 | 22.33098 | 34237 ft | 472 kts | 209° |
| 2026-04-28 17:45 | 49.94333 | 22.29243 | 34237 ft | 472 kts | 209° |
| 2026-04-28 17:46 | 49.88232 | 22.25396 | 34234 ft | 473 kts | 209° |
| 2026-04-28 17:46 | 49.82180 | 22.21592 | 34228 ft | 471 kts | 209° |
| 2026-04-28 17:47 | 49.76093 | 22.17777 | 34233 ft | 472 kts | 209° |
| 2026-04-28 17:47 | 49.69992 | 22.13961 | 34236 ft | 472 kts | 209° |
| 2026-04-28 17:48 | 49.63889 | 22.10157 | 34206 ft | 470 kts | 209° |
| 2026-04-28 17:48 | 49.58850 | 22.07025 | 34222 ft | 469 kts | 209° |
| 2026-04-28 17:49 | 49.52802 | 22.03271 | 34236 ft | 468 kts | 209° |
| 2026-04-28 17:49 | 49.46804 | 21.99557 | 34221 ft | 467 kts | 209° |
| 2026-04-28 17:50 | 49.40770 | 21.95831 | 34209 ft | 466 kts | 210° |
| 2026-04-28 17:50 | 49.34749 | 21.92092 | 34217 ft | 463 kts | 212° |
| 2026-04-28 17:51 | 49.29007 | 21.87756 | 34218 ft | 460 kts | 215° |
| 2026-04-28 17:51 | 49.23348 | 21.83279 | 34167 ft | 460 kts | 215° |
| 2026-04-28 17:52 | 49.17649 | 21.78818 | 34203 ft | 459 kts | 215° |
| 2026-04-28 17:52 | 49.09070 | 21.72196 | 34207 ft | 460 kts | 215° |
| 2026-04-28 17:53 | 49.03379 | 21.67829 | 34200 ft | 460 kts | 214° |
| 2026-04-28 17:53 | 48.97642 | 21.63436 | 34192 ft | 460 kts | 214° |
| 2026-04-28 17:54 | 48.91934 | 21.59076 | 34199 ft | 460 kts | 214° |
| 2026-04-28 17:54 | 48.86207 | 21.54713 | 34191 ft | 460 kts | 214° |
| 2026-04-28 17:55 | 48.80464 | 21.50349 | 34172 ft | 461 kts | 215° |
| 2026-04-28 17:55 | 48.74755 | 21.46020 | 34187 ft | 461 kts | 215° |
| 2026-04-28 17:56 | 48.68993 | 21.41664 | 34184 ft | 462 kts | 215° |
| 2026-04-28 17:56 | 48.63234 | 21.37320 | 34149 ft | 462 kts | 215° |
| 2026-04-28 17:57 | 48.57474 | 21.32985 | 34185 ft | 462 kts | 215° |
| 2026-04-28 17:57 | 48.51730 | 21.28727 | 34180 ft | 465 kts | 212° |
| 2026-04-28 17:58 | 48.45603 | 21.25298 | 34174 ft | 471 kts | 207° |
| 2026-04-28 17:58 | 48.39375 | 21.22139 | 34160 ft | 468 kts | 207° |
| 2026-04-28 17:59 | 48.33272 | 21.19010 | 34160 ft | 465 kts | 207° |
| 2026-04-28 17:59 | 48.27153 | 21.15807 | 34168 ft | 465 kts | 207° |
| 2026-04-28 18:00 | 48.21070 | 21.12603 | 34133 ft | 465 kts | 207° |
| 2026-04-28 18:00 | 48.14957 | 21.09391 | 34155 ft | 465 kts | 207° |
| 2026-04-28 18:01 | 48.08847 | 21.06191 | 34160 ft | 465 kts | 207° |
| 2026-04-28 18:01 | 48.02753 | 21.03009 | 34157 ft | 465 kts | 207° |
| 2026-04-28 18:02 | 47.96623 | 20.99818 | 34152 ft | 465 kts | 207° |
| 2026-04-28 18:02 | 47.90533 | 20.96654 | 34158 ft | 466 kts | 207° |
| 2026-04-28 18:03 | 47.84391 | 20.93472 | 34156 ft | 466 kts | 207° |
| 2026-04-28 18:03 | 47.78281 | 20.90314 | 34144 ft | 466 kts | 208° |
| 2026-04-28 18:04 | 47.72140 | 20.87149 | 34149 ft | 467 kts | 208° |
| 2026-04-28 18:04 | 47.65978 | 20.83981 | 34150 ft | 467 kts | 208° |
| 2026-04-28 18:05 | 47.60852 | 20.81351 | 34151 ft | 467 kts | 208° |
| 2026-04-28 18:05 | 47.53696 | 20.77689 | 34138 ft | 467 kts | 208° |
| 2026-04-28 18:06 | 47.47572 | 20.74563 | 34152 ft | 467 kts | 208° |
| 2026-04-28 18:06 | 47.41401 | 20.71422 | 34149 ft | 467 kts | 208° |
| 2026-04-28 18:07 | 47.35248 | 20.68295 | 34143 ft | 467 kts | 209° |
| 2026-04-28 18:07 | 47.29124 | 20.65193 | 34146 ft | 467 kts | 209° |
| 2026-04-28 18:08 | 47.22955 | 20.62076 | 34141 ft | 468 kts | 209° |
| 2026-04-28 18:08 | 47.16823 | 20.58985 | 34129 ft | 467 kts | 209° |
| 2026-04-28 18:09 | 47.10657 | 20.55884 | 34137 ft | 468 kts | 209° |
| 2026-04-28 18:09 | 47.04576 | 20.52833 | 34144 ft | 468 kts | 209° |
| 2026-04-28 18:10 | 46.98399 | 20.49741 | 34150 ft | 468 kts | 209° |
| 2026-04-28 18:10 | 46.92251 | 20.46672 | 34141 ft | 469 kts | 209° |
| 2026-04-28 18:11 | 46.86071 | 20.43595 | 34136 ft | 469 kts | 209° |
| 2026-04-28 18:11 | 46.79883 | 20.40520 | 34105 ft | 469 kts | 209° |
| 2026-04-28 18:12 | 46.73731 | 20.37471 | 34136 ft | 469 kts | 209° |
| 2026-04-28 18:12 | 46.67544 | 20.34412 | 34144 ft | 469 kts | 209° |
| 2026-04-28 18:13 | 46.61380 | 20.31371 | 34139 ft | 470 kts | 209° |
| 2026-04-28 18:13 | 46.55196 | 20.28328 | 34134 ft | 469 kts | 208° |
| 2026-04-28 18:14 | 46.48997 | 20.25286 | 34138 ft | 470 kts | 208° |
| 2026-04-28 18:14 | 46.42796 | 20.22249 | 34137 ft | 470 kts | 208° |
| 2026-04-28 18:15 | 46.36632 | 20.19239 | 34130 ft | 466 kts | 208° |
| 2026-04-28 18:15 | 46.30490 | 20.16247 | 34134 ft | 465 kts | 208° |
| 2026-04-28 18:16 | 46.24350 | 20.13257 | 34136 ft | 465 kts | 208° |
| 2026-04-28 18:16 | 46.18241 | 20.10293 | 34125 ft | 465 kts | 207° |
| 2026-04-28 18:17 | 46.11863 | 20.08041 | 34134 ft | 476 kts | 198° |
| 2026-04-28 18:17 | 46.05318 | 20.06549 | 34120 ft | 478 kts | 197° |
| 2026-04-28 18:18 | 45.98728 | 20.05072 | 34113 ft | 478 kts | 198° |
| 2026-04-28 18:18 | 45.93253 | 20.03790 | 34118 ft | 479 kts | 198° |
| 2026-04-28 18:19 | 45.85598 | 20.01950 | 34120 ft | 479 kts | 198° |
| 2026-04-28 18:19 | 45.79003 | 20.00357 | 34100 ft | 479 kts | 198° |
| 2026-04-28 18:20 | 45.72407 | 19.98771 | 34113 ft | 480 kts | 198° |
| 2026-04-28 18:20 | 45.65849 | 19.97199 | 34116 ft | 481 kts | 198° |
| 2026-04-28 18:21 | 45.59233 | 19.95619 | 34092 ft | 481 kts | 197° |
| 2026-04-28 18:21 | 45.52613 | 19.94042 | 34104 ft | 482 kts | 197° |
| 2026-04-28 18:22 | 45.46017 | 19.92474 | 34110 ft | 482 kts | 197° |
| 2026-04-28 18:22 | 45.39390 | 19.90902 | 34090 ft | 482 kts | 197° |
| 2026-04-28 18:23 | 45.33881 | 19.89598 | 34096 ft | 482 kts | 197° |
| 2026-04-28 18:23 | 45.28043 | 19.88220 | 34101 ft | 482 kts | 197° |
| 2026-04-28 18:24 | 45.22534 | 19.86921 | 34096 ft | 482 kts | 197° |
| 2026-04-28 18:24 | 45.14794 | 19.85100 | 34088 ft | 481 kts | 197° |
| 2026-04-28 18:25 | 45.08217 | 19.83555 | 34098 ft | 481 kts | 197° |
| 2026-04-28 18:26 | 44.98279 | 19.81234 | 34085 ft | 481 kts | 197° |
| 2026-04-28 18:26 | 44.91704 | 19.79700 | 34087 ft | 481 kts | 197° |
| 2026-04-28 18:27 | 44.85074 | 19.78157 | 34084 ft | 481 kts | 197° |
| 2026-04-28 18:27 | 44.78499 | 19.76630 | 34076 ft | 482 kts | 197° |
| 2026-04-28 18:28 | 44.71876 | 19.75097 | 34071 ft | 482 kts | 197° |
| 2026-04-28 18:28 | 44.65278 | 19.73572 | 34063 ft | 482 kts | 197° |
| 2026-04-28 18:29 | 44.58658 | 19.72047 | 34054 ft | 481 kts | 196° |
| 2026-04-28 18:29 | 44.52032 | 19.70524 | 34060 ft | 480 kts | 196° |
| 2026-04-28 18:30 | 44.45472 | 19.69019 | 34059 ft | 480 kts | 196° |
| 2026-04-28 18:30 | 44.38872 | 19.67507 | 34056 ft | 479 kts | 195° |
| 2026-04-28 18:31 | 44.32281 | 19.66002 | 34055 ft | 479 kts | 195° |
| 2026-04-28 18:31 | 44.25737 | 19.64510 | 34050 ft | 479 kts | 195° |
| 2026-04-28 18:32 | 44.19140 | 19.63010 | 34049 ft | 478 kts | 195° |
| 2026-04-28 18:32 | 44.12552 | 19.61515 | 34039 ft | 479 kts | 195° |
| 2026-04-28 18:33 | 44.06012 | 19.60035 | 34044 ft | 477 kts | 195° |
| 2026-04-28 18:33 | 43.99509 | 19.58573 | 34024 ft | 460 kts | 195° |
| 2026-04-28 18:33 | 43.96375 | 19.57874 | 33683 ft | 452 kts | 195° |
| 2026-04-28 18:34 | 43.93337 | 19.57193 | 33358 ft | 444 kts | 195° |
| 2026-04-28 18:34 | 43.90298 | 19.56508 | 32967 ft | 440 kts | 195° |
| 2026-04-28 18:34 | 43.87290 | 19.55830 | 32524 ft | 435 kts | 195° |
| 2026-04-28 18:34 | 43.84307 | 19.55157 | 32161 ft | 430 kts | 195° |
| 2026-04-28 18:35 | 43.81367 | 19.54495 | 31760 ft | 427 kts | 195° |
| 2026-04-28 18:35 | 43.78437 | 19.53837 | 31359 ft | 423 kts | 194° |
| 2026-04-28 18:35 | 43.75548 | 19.53224 | 31054 ft | 414 kts | 194° |
| 2026-04-28 18:35 | 43.72738 | 19.52602 | 30572 ft | 413 kts | 194° |
| 2026-04-28 18:36 | 43.69911 | 19.51959 | 30241 ft | 409 kts | 195° |
| 2026-04-28 18:36 | 43.67108 | 19.51318 | 29786 ft | 407 kts | 194° |
| 2026-04-28 18:36 | 43.65257 | 19.50898 | 29527 ft | 405 kts | 194° |
| 2026-04-28 18:36 | 43.62490 | 19.50275 | 29146 ft | 401 kts | 194° |
| 2026-04-28 18:37 | 43.59741 | 19.49659 | 28744 ft | 397 kts | 194° |
| 2026-04-28 18:37 | 43.57010 | 19.49051 | 28347 ft | 394 kts | 194° |
| 2026-04-28 18:37 | 43.54317 | 19.48452 | 27978 ft | 390 kts | 194° |
| 2026-04-28 18:37 | 43.51678 | 19.47865 | 27595 ft | 387 kts | 194° |
| 2026-04-28 18:38 | 43.49020 | 19.47275 | 27188 ft | 384 kts | 193° |
| 2026-04-28 18:38 | 43.46394 | 19.46692 | 26863 ft | 380 kts | 194° |
| 2026-04-28 18:38 | 43.43782 | 19.46113 | 26470 ft | 378 kts | 194° |
| 2026-04-28 18:38 | 43.41196 | 19.45540 | 26102 ft | 375 kts | 194° |
| 2026-04-28 18:39 | 43.38612 | 19.44968 | 25674 ft | 375 kts | 194° |
| 2026-04-28 18:39 | 43.36069 | 19.44406 | 25317 ft | 373 kts | 194° |
| 2026-04-28 18:39 | 43.33510 | 19.43862 | 24946 ft | 372 kts | 193° |
| 2026-04-28 18:39 | 43.30947 | 19.43354 | 24576 ft | 370 kts | 193° |
| 2026-04-28 18:40 | 43.28399 | 19.42859 | 24215 ft | 369 kts | 193° |
| 2026-04-28 18:40 | 43.25857 | 19.42368 | 23858 ft | 368 kts | 193° |
| 2026-04-28 18:40 | 43.23347 | 19.41881 | 23440 ft | 368 kts | 193° |
| 2026-04-28 18:40 | 43.20819 | 19.41388 | 23040 ft | 365 kts | 193° |
| 2026-04-28 18:41 | 43.18302 | 19.40898 | 22654 ft | 363 kts | 192° |
| 2026-04-28 18:41 | 43.15798 | 19.40409 | 22277 ft | 361 kts | 192° |
| 2026-04-28 18:41 | 43.13347 | 19.39930 | 21912 ft | 359 kts | 192° |
| 2026-04-28 18:41 | 43.10877 | 19.39447 | 21561 ft | 356 kts | 192° |
| 2026-04-28 18:42 | 43.08428 | 19.38965 | 21197 ft | 353 kts | 192° |
| 2026-04-28 18:42 | 43.05996 | 19.38486 | 20858 ft | 351 kts | 192° |
| 2026-04-28 18:42 | 43.03576 | 19.38012 | 20510 ft | 349 kts | 192° |
| 2026-04-28 18:42 | 43.01205 | 19.37552 | 20155 ft | 347 kts | 192° |
| 2026-04-28 18:43 | 42.98815 | 19.37088 | 19803 ft | 345 kts | 192° |
| 2026-04-28 18:43 | 42.96437 | 19.36626 | 19467 ft | 343 kts | 192° |
| 2026-04-28 18:43 | 42.94098 | 19.36170 | 19128 ft | 342 kts | 192° |
| 2026-04-28 18:43 | 42.91746 | 19.35711 | 18784 ft | 341 kts | 191° |
| 2026-04-28 18:44 | 42.89397 | 19.35254 | 18438 ft | 340 kts | 191° |
| 2026-04-28 18:44 | 42.84728 | 19.34347 | 17696 ft | 337 kts | 191° |
| 2026-04-28 18:44 | 42.82405 | 19.33896 | 17316 ft | 336 kts | 191° |
| 2026-04-28 18:45 | 42.80104 | 19.33450 | 16973 ft | 332 kts | 191° |
| 2026-04-28 18:45 | 42.77821 | 19.33008 | 16630 ft | 330 kts | 191° |
| 2026-04-28 18:45 | 42.75549 | 19.32568 | 16306 ft | 327 kts | 191° |
| 2026-04-28 18:45 | 42.73330 | 19.32139 | 15965 ft | 326 kts | 191° |
| 2026-04-28 18:46 | 42.71083 | 19.31704 | 15632 ft | 324 kts | 191° |
| 2026-04-28 18:46 | 42.68846 | 19.31277 | 15287 ft | 321 kts | 191° |
| 2026-04-28 18:46 | 42.66667 | 19.30858 | 14990 ft | 318 kts | 191° |
| 2026-04-28 18:46 | 42.64482 | 19.30434 | 14673 ft | 316 kts | 190° |
| 2026-04-28 18:47 | 42.62303 | 19.30012 | 14350 ft | 315 kts | 191° |
| 2026-04-28 18:47 | 42.60129 | 19.29591 | 14021 ft | 315 kts | 189° |
| 2026-04-28 18:47 | 42.57960 | 19.29173 | 13684 ft | 314 kts | 191° |
| 2026-04-28 18:47 | 42.55800 | 19.28758 | 13322 ft | 313 kts | 190° |
| 2026-04-28 18:48 | 42.53647 | 19.28343 | 12985 ft | 311 kts | 190° |
| 2026-04-28 18:48 | 42.51531 | 19.27936 | 12635 ft | 310 kts | 189° |
| 2026-04-28 18:48 | 42.49399 | 19.27528 | 12299 ft | 308 kts | 190° |
| 2026-04-28 18:48 | 42.47280 | 19.27120 | 11982 ft | 307 kts | 189° |
| 2026-04-28 18:49 | 42.45162 | 19.26714 | 11649 ft | 306 kts | 189° |
| 2026-04-28 18:49 | 42.43767 | 19.26447 | 11434 ft | 305 kts | 189° |
| 2026-04-28 18:49 | 42.41031 | 19.25923 | 11089 ft | 303 kts | 188° |
| 2026-04-28 18:49 | 42.39008 | 19.25343 | 10616 ft | 301 kts | 204° |
| 2026-04-28 18:50 | 42.37275 | 19.23805 | 10352 ft | 295 kts | 224° |
| 2026-04-28 18:50 | 42.35809 | 19.21909 | 10172 ft | 289 kts | 225° |
| 2026-04-28 18:50 | 42.34384 | 19.20031 | 10042 ft | 282 kts | 225° |
| 2026-04-28 18:50 | 42.32992 | 19.18198 | 9816 ft | 278 kts | 225° |
| 2026-04-28 18:51 | 42.31602 | 19.16376 | 9527 ft | 277 kts | 225° |
| 2026-04-28 18:51 | 42.30219 | 19.14570 | 9244 ft | 276 kts | 225° |
| 2026-04-28 18:51 | 42.28855 | 19.12794 | 8967 ft | 274 kts | 225° |
| 2026-04-28 18:51 | 42.27481 | 19.11010 | 8691 ft | 273 kts | 225° |
| 2026-04-28 18:52 | 42.26110 | 19.09232 | 8411 ft | 271 kts | 225° |
| 2026-04-28 18:52 | 42.24750 | 19.07469 | 8161 ft | 270 kts | 225° |
| 2026-04-28 18:52 | 42.23519 | 19.05877 | 7925 ft | 269 kts | 225° |
| 2026-04-28 18:52 | 42.22212 | 19.04188 | 7653 ft | 268 kts | 225° |
| 2026-04-28 18:53 | 42.20870 | 19.02456 | 7400 ft | 266 kts | 225° |
| 2026-04-28 18:53 | 42.19539 | 19.00738 | 7197 ft | 262 kts | 224° |
| 2026-04-28 18:53 | 42.18261 | 18.99094 | 7158 ft | 247 kts | 225° |
| 2026-04-28 18:53 | 42.17054 | 18.97542 | 7044 ft | 234 kts | 225° |
| 2026-04-28 18:54 | 42.15902 | 18.96055 | 6799 ft | 225 kts | 227° |
| 2026-04-28 18:54 | 42.15164 | 18.94305 | 6566 ft | 209 kts | 262° |
| 2026-04-28 18:54 | 42.15143 | 18.92458 | 6475 ft | 194 kts | 279° |
| 2026-04-28 18:54 | 42.15400 | 18.90705 | 6384 ft | 189 kts | 282° |
| 2026-04-28 18:55 | 42.15675 | 18.88939 | 6302 ft | 191 kts | 282° |
| 2026-04-28 18:55 | 42.15861 | 18.87765 | 6176 ft | 194 kts | 285° |
| 2026-04-28 18:55 | 42.16895 | 18.85895 | 5879 ft | 192 kts | 334° |
| 2026-04-28 18:55 | 42.18128 | 18.85231 | 5712 ft | 191 kts | 338° |
| 2026-04-28 18:56 | 42.19368 | 18.84590 | 5499 ft | 190 kts | 338° |
| 2026-04-28 18:56 | 42.20602 | 18.83954 | 5292 ft | 190 kts | 339° |
| 2026-04-28 18:56 | 42.21814 | 18.83334 | 5233 ft | 182 kts | 339° |
| 2026-04-28 18:56 | 42.23037 | 18.82706 | 4915 ft | 193 kts | 339° |
| 2026-04-28 18:57 | 42.24299 | 18.82055 | 4538 ft | 197 kts | 339° |
| 2026-04-28 18:57 | 42.25623 | 18.81364 | 3910 ft | 212 kts | 339° |
| 2026-04-28 18:57 | 42.27029 | 18.80623 | 3261 ft | 221 kts | 338° |
| 2026-04-28 18:57 | 42.28439 | 18.79888 | 2857 ft | 209 kts | 339° |
| 2026-04-28 18:58 | 42.29730 | 18.79221 | 2728 ft | 187 kts | 339° |
| 2026-04-28 18:58 | 42.30948 | 18.78602 | 2619 ft | 186 kts | 340° |
| 2026-04-28 18:58 | 42.32157 | 18.78083 | 2453 ft | 181 kts | 342° |
| 2026-04-28 18:58 | 42.33344 | 18.77614 | 2136 ft | 175 kts | 344° |
| 2026-04-28 18:59 | 42.34527 | 18.77212 | 1677 ft | 173 kts | 345° |
| 2026-04-28 18:59 | 42.35687 | 18.76815 | 1249 ft | 171 kts | 344° |
| 2026-04-28 18:59 | 42.36792 | 18.76290 | 814 ft | 169 kts | 333° |
| 2026-04-28 18:59 | 42.37746 | 18.75459 | 572 ft | 156 kts | 322° |
| 2026-04-28 19:00 | 42.38572 | 18.74557 | 331 ft | 151 kts | 318° |
| 2026-04-28 19:00 | 42.39357 | 18.73638 | 67 ft | 148 kts | 317° |
| 2026-04-28 19:00 | 42.40113 | 18.72740 | -40 ft | 137 kts | 318° |
| 2026-04-28 19:00 | 42.40731 | 18.72011 | -43 ft | 98 kts | 319° |
| 2026-04-28 19:01 | 42.41085 | 18.71596 | -42 ft | 33 kts | 319° |
| 2026-04-28 19:01 | 42.41243 | 18.71409 | -44 ft | 19 kts | 319° |
| 2026-04-28 19:01 | 42.41334 | 18.71375 | -41 ft | 6 kts | 32° |
| 2026-04-28 19:01 | 42.41340 | 18.71382 | -40 ft | 1 kts | 39° |
| 2026-04-28 19:02 | 42.41343 | 18.71385 | -40 ft | 1 kts | 41° |
| 2026-04-28 19:02 | 42.41345 | 18.71388 | -40 ft | 0 kts | 46° |
| 2026-04-28 19:02 | 42.41350 | 18.71398 | -41 ft | 4 kts | 56° |
| 2026-04-28 19:02 | 42.41352 | 18.71463 | -42 ft | 10 kts | 118° |
| 2026-04-28 19:03 | 42.41305 | 18.71524 | -41 ft | 9 kts | 139° |
| 2026-04-28 19:03 | 42.41261 | 18.71576 | -39 ft | 7 kts | 140° |
| 2026-04-28 19:03 | 42.41223 | 18.71621 | -37 ft | 7 kts | 138° |
| 2026-04-28 19:03 | 42.41211 | 18.71658 | -39 ft | 5 kts | 59° |
| 2026-04-28 19:04 | 42.41223 | 18.71696 | -39 ft | 3 kts | 110° |
| 2026-04-28 19:04 | 42.41210 | 18.71701 | -39 ft | 2 kts | 179° |
| 2026-04-28 19:04 | 42.41207 | 18.71702 | -39 ft | 0 kts | 179° |